Time;durP1;ratioP1;P1;durP2;ratioP2;P2;SDS_P1;SDS_P2;PMS_P1;PMS_P2;Temp;Humidity;BMP_temperature;BMP_pressure;BME280_temperature;BME280_humidity;BME280_pressure;Samples;Min_cycle;Max_cycle;Signal;HPM_P1;HPM_P2
2023/03/31 00:02:12;;;;;;;17.17;2.63;;;10.20;99.90;;;;;;4978051;28;20050;-76
2023/03/31 00:04:51;;;;;;;18.20;3.17;;;10.20;99.90;;;;;;4977900;28;20536;-76
2023/03/31 00:07:20;;;;;;;15.63;3.60;;;10.10;99.90;;;;;;4977811;28;20098;-75
2023/03/31 00:09:47;;;;;;;17.50;3.00;;;10.30;99.90;;;;;;4967877;28;20127;-75
2023/03/31 00:12:15;;;;;;;15.27;2.85;;;10.20;99.90;;;;;;4987357;28;20054;-76
2023/03/31 00:14:42;;;;;;;15.15;2.97;;;10.20;99.90;;;;;;4984102;28;20074;-75
2023/03/31 00:17:09;;;;;;;16.27;2.70;;;10.20;99.90;;;;;;4977283;28;20129;-76
2023/03/31 00:19:35;;;;;;;13.43;2.75;;;10.30;99.90;;;;;;4977260;28;20054;-75
2023/03/31 00:22:01;;;;;;;13.43;3.47;;;10.30;99.90;;;;;;4977091;28;20097;-76
2023/03/31 00:24:31;;;;;;;14.90;2.47;;;10.30;99.90;;;;;;4977062;28;20129;-76
2023/03/31 00:27:04;;;;;;;16.73;2.50;;;10.30;99.90;;;;;;4977089;28;20050;-76
2023/03/31 00:29:32;;;;;;;;;;;10.40;99.90;;;;;;4978797;28;20039;-76
2023/03/31 00:31:58;;;;;;;13.07;2.67;;;10.30;99.90;;;;;;4976879;28;19922;-77
2023/03/31 00:34:25;;;;;;;16.20;2.42;;;10.30;99.90;;;;;;4976668;28;20043;-77
2023/03/31 00:36:55;;;;;;;16.45;2.92;;;10.30;99.90;;;;;;4976818;28;20054;-77
2023/03/31 00:39:23;;;;;;;18.88;2.88;;;10.30;99.90;;;;;;4976448;28;20121;-76
2023/03/31 00:41:49;;;;;;;16.42;2.72;;;10.20;99.90;;;;;;4959600;28;20133;-76
2023/03/31 00:44:21;;;;;;;14.18;2.90;;;10.20;99.90;;;;;;4977095;28;20134;-75
2023/03/31 00:47:01;;;;;;;10.43;2.15;;;10.20;99.90;;;;;;4976931;28;20055;-75
2023/03/31 00:49:49;;;;;;;17.85;2.67;;;10.20;99.90;;;;;;4959569;28;20054;-75
2023/03/31 00:52:30;;;;;;;15.65;3.15;;;10.10;99.90;;;;;;4980504;28;20058;-75
2023/03/31 00:55:00;;;;;;;21.20;3.25;;;10.10;99.90;;;;;;4969249;28;20110;-75
2023/03/31 00:57:27;;;;;;;13.15;2.35;;;10.00;99.90;;;;;;4983840;28;20051;-75
2023/03/31 01:00:00;;;;;;;16.27;2.20;;;10.10;99.90;;;;;;4976813;28;20043;-76
2023/03/31 01:02:27;;;;;;;10.50;2.17;;;10.00;99.90;;;;;;4976761;28;20047;-75
2023/03/31 01:05:00;;;;;;;14.38;2.28;;;10.00;99.90;;;;;;4976624;28;20535;-76
2023/03/31 01:07:26;;;;;;;13.48;3.00;;;10.00;99.90;;;;;;4976887;28;20114;-75
2023/03/31 01:09:55;;;;;;;19.70;3.30;;;10.10;99.90;;;;;;4976420;28;20436;-75
2023/03/31 01:12:22;;;;;;;13.00;2.42;;;9.90;99.90;;;;;;4959508;28;20392;-76
2023/03/31 01:14:50;;;;;;;11.38;2.15;;;10.10;99.90;;;;;;4976296;28;20051;-76
2023/03/31 01:17:20;;;;;;;15.63;2.78;;;10.00;99.90;;;;;;4976307;28;20125;-75
2023/03/31 01:20:10;;;;;;;14.52;2.80;;;9.90;99.90;;;;;;4976328;28;20125;-76
2023/03/31 01:22:53;;;;;;;12.15;2.03;;;10.00;99.90;;;;;;4976312;28;20061;-76
2023/03/31 01:25:37;;;;;;;15.07;1.90;;;9.90;99.90;;;;;;4976592;28;20055;-77
2023/03/31 01:28:19;;;;;;;11.48;2.17;;;9.80;99.90;;;;;;4975829;28;20051;-76
2023/03/31 01:31:10;;;;;;;11.77;2.60;;;9.80;99.90;;;;;;4976436;28;20122;-78
2023/03/31 01:33:54;;;;;;;10.80;1.80;;;9.80;99.90;;;;;;4976005;28;20047;-77
2023/03/31 01:37:08;;;;;;;13.38;2.60;;;9.80;99.90;;;;;;4976708;28;20477;-78
2023/03/31 01:39:55;;;;;;;10.57;1.65;;;9.50;99.90;;;;;;4958344;28;20047;-77
2023/03/31 01:42:33;;;;;;;14.52;2.55;;;9.70;99.90;;;;;;4975603;28;20086;-77
2023/03/31 01:45:38;;;;;;;12.77;2.42;;;9.70;99.90;;;;;;4975295;28;20561;-75
2023/03/31 01:48:20;;;;;;;10.45;1.88;;;9.60;99.90;;;;;;4897046;29;20059;-75
2023/03/31 01:50:58;;;;;;;10.48;1.92;;;9.60;99.90;;;;;;4881588;29;20077;-76
2023/03/31 01:54:01;;;;;;;13.90;2.00;;;9.50;99.90;;;;;;4948562;28;20066;-76
2023/03/31 01:56:37;;;;;;;13.25;2.33;;;9.70;99.90;;;;;;4975849;28;20059;-75
2023/03/31 01:59:13;;;;;;;11.88;2.28;;;9.50;99.90;;;;;;4975247;28;20042;-75
2023/03/31 02:01:42;;;;;;;13.95;1.92;;;9.60;99.90;;;;;;4975266;28;20492;-75
2023/03/31 02:04:15;;;;;;;12.05;2.30;;;9.60;99.90;;;;;;4975182;28;20105;-76
2023/03/31 02:06:46;;;;;;;14.60;1.92;;;9.50;99.90;;;;;;4974940;28;20051;-75
2023/03/31 02:09:18;;;;;;;11.10;1.85;;;9.40;99.90;;;;;;4975428;28;20046;-75
2023/03/31 02:11:45;;;;;;;11.10;1.77;;;9.40;99.90;;;;;;4974868;28;20504;-76
2023/03/31 02:14:17;;;;;;;10.73;1.90;;;9.30;99.90;;;;;;4974997;28;20286;-76
2023/03/31 02:16:46;;;;;;;11.35;1.70;;;9.40;99.90;;;;;;4975912;28;20051;-75
2023/03/31 02:19:17;;;;;;;10.52;1.60;;;9.40;99.90;;;;;;4974564;28;20567;-76
2023/03/31 02:21:49;;;;;;;15.20;1.80;;;9.30;99.90;;;;;;4975224;28;20055;-76
2023/03/31 02:24:18;;;;;;;9.43;1.37;;;9.40;99.90;;;;;;4975071;28;20082;-76
2023/03/31 02:26:54;;;;;;;9.98;1.52;;;9.60;99.90;;;;;;4974802;28;20278;-76
2023/03/31 02:29:20;;;;;;;11.82;1.70;;;9.30;99.90;;;;;;4974859;28;20089;-76
2023/03/31 02:31:48;;;;;;;8.77;1.65;;;9.40;99.90;;;;;;4974746;28;20046;-76
2023/03/31 02:34:14;;;;;;;13.45;1.88;;;9.40;99.90;;;;;;4974755;28;20105;-77
2023/03/31 02:36:42;;;;;;;11.68;2.00;;;9.40;99.90;;;;;;4975008;28;20620;-76
2023/03/31 02:39:13;;;;;;;14.73;2.05;;;9.50;99.90;;;;;;4957554;28;20047;-75
2023/03/31 02:41:39;;;;;;;9.63;1.85;;;9.30;99.90;;;;;;4974978;28;20384;-76
2023/03/31 02:44:05;;;;;;;10.50;1.80;;;9.40;99.90;;;;;;4975216;28;20050;-75
2023/03/31 02:46:31;;;;;;;11.20;1.70;;;9.30;99.90;;;;;;4974298;28;20057;-75
2023/03/31 02:48:59;;;;;;;11.77;2.67;;;9.40;99.90;;;;;;4974644;28;20130;-75
2023/03/31 02:51:46;;;;;;;12.40;1.88;;;9.40;99.90;;;;;;4974576;28;20479;-75
2023/03/31 02:54:21;;;;;;;12.50;1.95;;;9.30;99.90;;;;;;4974573;28;20055;-76
2023/03/31 02:57:10;;;;;;;9.57;1.60;;;9.40;99.90;;;;;;4975158;28;20046;-75
2023/03/31 02:59:48;;;;;;;10.80;1.95;;;9.60;99.90;;;;;;4973551;28;20062;-75
2023/03/31 03:02:44;;;;;;;11.35;1.60;;;9.50;99.90;;;;;;4976359;28;20050;-76
2023/03/31 03:05:24;;;;;;;11.85;2.05;;;9.50;99.90;;;;;;4979023;28;20046;-76
2023/03/31 03:08:08;;;;;;;12.32;2.30;;;9.40;99.90;;;;;;4978402;28;20054;-76
2023/03/31 03:10:59;;;;;;;15.57;2.70;;;9.30;99.90;;;;;;4961104;28;20050;-76
2023/03/31 03:13:30;;;;;;;11.15;1.88;;;9.30;99.90;;;;;;4978244;28;20051;-76
2023/03/31 03:16:23;;;;;;;7.20;1.55;;;9.40;99.90;;;;;;4977957;28;20493;-76
2023/03/31 03:18:56;;;;;;;10.52;2.03;;;9.40;99.90;;;;;;4960954;28;20043;-76
2023/03/31 03:21:22;;;;;;;10.27;1.70;;;9.40;99.90;;;;;;4961363;28;20050;-77
2023/03/31 03:23:48;;;;;;;10.73;3.00;;;9.50;99.90;;;;;;4978090;28;20058;-76
2023/03/31 03:26:13;;;;;;;8.38;2.30;;;9.50;99.90;;;;;;4978775;28;20054;-77
2023/03/31 03:28:39;;;;;;;7.85;2.13;;;9.70;99.90;;;;;;4960784;28;20089;-77
2023/03/31 03:31:05;;;;;;;4.57;2.13;;;9.40;99.90;;;;;;4977956;28;20058;-77
2023/03/31 03:33:31;;;;;;;7.68;1.92;;;9.50;99.90;;;;;;4977940;28;20050;-77
2023/03/31 03:35:56;;;;;;;10.05;2.08;;;9.50;99.90;;;;;;4978172;28;20477;-77
2023/03/31 03:38:22;;;;;;;9.45;2.05;;;9.60;99.90;;;;;;4978323;28;20050;-79
2023/03/31 03:40:52;;;;;;;6.97;1.80;;;9.50;99.90;;;;;;4977720;28;20102;-78
2023/03/31 03:43:18;;;;;;;11.02;2.58;;;9.60;99.90;;;;;;4977574;28;20130;-78
2023/03/31 03:45:47;;;;;;;7.70;1.70;;;9.50;99.90;;;;;;4961164;28;20082;-78
2023/03/31 03:48:13;;;;;;;8.75;1.98;;;9.50;99.90;;;;;;4960563;28;20090;-78
2023/03/31 03:50:40;;;;;;;8.43;2.30;;;9.60;99.90;;;;;;4977564;28;20078;-78
2023/03/31 03:53:07;;;;;;;9.82;2.22;;;9.60;99.90;;;;;;4960078;28;20058;-78
2023/03/31 03:55:32;;;;;;;11.25;2.10;;;9.60;99.90;;;;;;4977439;28;20065;-78
2023/03/31 03:57:58;;;;;;;7.50;1.90;;;9.60;99.90;;;;;;4977513;28;20043;-78
2023/03/31 04:00:24;;;;;;;8.68;2.28;;;9.50;99.90;;;;;;4977366;28;20049;-78
2023/03/31 04:02:50;;;;;;;8.93;2.22;;;9.60;99.90;;;;;;4977670;28;20046;-78
2023/03/31 04:05:16;;;;;;;5.13;2.25;;;9.70;99.90;;;;;;4977329;28;20488;-78
2023/03/31 04:07:41;;;;;;;8.98;2.17;;;9.50;99.90;;;;;;4960112;28;20051;-78
2023/03/31 04:10:08;;;;;;;11.13;2.00;;;9.50;99.90;;;;;;4960810;28;20043;-78
2023/03/31 04:12:37;;;;;;;8.35;1.95;;;9.60;99.90;;;;;;4977162;28;20062;-78
2023/03/31 04:15:03;;;;;;;7.82;2.50;;;9.60;99.90;;;;;;4976777;28;20397;-78
2023/03/31 04:17:33;;;;;;;6.65;2.42;;;9.60;99.90;;;;;;4977847;28;20047;-77
2023/03/31 04:20:00;;;;;;;7.13;2.80;;;9.60;99.90;;;;;;4976635;28;20043;-78
2023/03/31 04:22:34;;;;;;;10.18;2.70;;;9.80;99.90;;;;;;4976984;28;20055;-78
2023/03/31 04:25:09;;;;;;;9.32;2.20;;;9.60;99.90;;;;;;4977075;28;20097;-78
2023/03/31 04:27:35;;;;;;;6.35;1.60;;;9.60;99.90;;;;;;4977237;28;20046;-77
2023/03/31 04:30:01;;;;;;;7.63;2.03;;;9.70;99.90;;;;;;4977652;28;20532;-78
2023/03/31 04:32:27;;;;;;;7.60;1.88;;;9.70;99.90;;;;;;4976863;28;20097;-78
2023/03/31 04:35:01;;;;;;;5.97;2.03;;;9.60;99.90;;;;;;4959764;28;20489;-78
2023/03/31 04:37:33;;;;;;;8.02;2.20;;;9.80;99.90;;;;;;4976945;28;20500;-76
2023/03/31 04:40:06;;;;;;;8.20;2.30;;;9.80;99.90;;;;;;4976964;28;20039;-75
2023/03/31 04:42:32;;;;;;;6.82;1.77;;;9.60;99.90;;;;;;4977566;28;20477;-76
2023/03/31 04:44:57;;;;;;;9.00;2.75;;;9.70;99.90;;;;;;4976638;28;20129;-75
2023/03/31 04:47:23;;;;;;;7.47;2.55;;;9.80;99.90;;;;;;4976782;28;20047;-75
2023/03/31 04:49:49;;;;;;;6.20;2.03;;;9.80;99.90;;;;;;4976416;28;20412;-75
2023/03/31 04:52:14;;;;;;;4.60;1.83;;;9.70;99.90;;;;;;4976301;28;20074;-75
2023/03/31 04:54:40;;;;;;;10.00;2.72;;;9.70;99.90;;;;;;4977190;28;20054;-75
2023/03/31 04:57:06;;;;;;;4.13;1.98;;;9.70;99.90;;;;;;4976340;28;20057;-75
2023/03/31 04:59:31;;;;;;;7.45;2.50;;;9.70;99.90;;;;;;4976502;28;20056;-75
2023/03/31 05:01:57;;;;;;;7.82;2.30;;;9.70;99.90;;;;;;4976371;28;20058;-75
2023/03/31 05:04:23;;;;;;;4.13;2.10;;;9.70;99.90;;;;;;4976769;28;20046;-75
2023/03/31 05:06:49;;;;;;;8.65;2.15;;;9.70;99.90;;;;;;4958943;28;20433;-73
2023/03/31 05:09:15;;;;;;;5.35;2.03;;;9.70;99.90;;;;;;4958832;28;20082;-73
2023/03/31 05:11:40;;;;;;;6.72;2.28;;;9.70;99.90;;;;;;4959031;28;20054;-73
2023/03/31 05:14:06;;;;;;;9.95;2.95;;;9.80;99.90;;;;;;4958743;28;20042;-73
2023/03/31 05:16:32;;;;;;;6.57;1.92;;;9.70;99.90;;;;;;4976395;28;20049;-73
2023/03/31 05:18:57;;;;;;;6.25;1.83;;;9.80;99.90;;;;;;4975981;28;20043;-73
2023/03/31 05:21:25;;;;;;;8.48;2.05;;;9.70;99.90;;;;;;4975890;28;20050;-73
2023/03/31 05:23:52;;;;;;;3.70;2.17;;;10.00;99.90;;;;;;4975937;28;20050;-72
2023/03/31 05:26:17;;;;;;;7.85;2.08;;;9.70;99.90;;;;;;4957752;28;20054;-73
2023/03/31 05:28:43;;;;;;;5.18;2.17;;;9.70;99.90;;;;;;4976408;28;20133;-73
2023/03/31 05:31:11;;;;;;;7.68;2.40;;;9.80;99.90;;;;;;4959327;28;20092;-73
2023/03/31 05:33:40;;;;;;;5.93;2.45;;;9.60;99.90;;;;;;4958777;28;20507;-73
2023/03/31 05:36:11;;;;;;;5.97;2.33;;;9.80;99.90;;;;;;4959449;28;20400;-73
2023/03/31 05:38:38;;;;;;;4.45;1.95;;;9.70;99.90;;;;;;4957934;28;20062;-73
2023/03/31 05:41:05;;;;;;;8.15;2.30;;;9.70;99.90;;;;;;4958505;28;20055;-73
2023/03/31 05:43:31;;;;;;;6.20;2.40;;;9.70;99.90;;;;;;4975562;28;20054;-73
2023/03/31 05:45:57;;;;;;;6.78;1.85;;;9.70;99.90;;;;;;4975485;28;20049;-73
2023/03/31 05:48:23;;;;;;;6.78;2.22;;;9.70;99.90;;;;;;4958467;28;20039;-73
2023/03/31 05:50:49;;;;;;;8.98;2.00;;;9.70;99.90;;;;;;4975966;28;20047;-75
2023/03/31 05:53:14;;;;;;;8.68;2.45;;;9.80;99.90;;;;;;4958387;28;20070;-74
2023/03/31 05:55:40;;;;;;;5.38;2.42;;;9.70;99.90;;;;;;4975459;28;20108;-74
2023/03/31 05:58:07;;;;;;;4.78;2.10;;;9.70;99.90;;;;;;4958223;28;20540;-74
2023/03/31 06:00:34;;;;;;;7.05;2.35;;;9.80;99.90;;;;;;4978868;28;20051;-73
2023/03/31 06:03:00;;;;;;;6.40;2.65;;;9.70;99.90;;;;;;4982164;28;20043;-73
2023/03/31 06:05:29;;;;;;;8.50;3.05;;;9.60;99.90;;;;;;4958671;28;20502;-73
2023/03/31 06:07:55;;;;;;;7.70;2.15;;;9.80;99.90;;;;;;4958449;28;20432;-73
2023/03/31 06:10:21;;;;;;;6.65;2.13;;;9.70;99.90;;;;;;4975201;28;20082;-73
2023/03/31 06:12:46;;;;;;;6.05;2.40;;;9.70;99.90;;;;;;4975166;28;20046;-73
2023/03/31 06:15:12;;;;;;;7.93;2.58;;;9.80;99.90;;;;;;4958017;28;20042;-74
2023/03/31 06:17:38;;;;;;;6.85;2.58;;;9.70;99.90;;;;;;4975495;28;20046;-73
2023/03/31 06:20:04;;;;;;;7.00;2.72;;;9.70;99.90;;;;;;4959714;28;20051;-73
2023/03/31 06:22:30;;;;;;;6.40;2.50;;;9.80;99.90;;;;;;4975676;28;20082;-74
2023/03/31 06:24:56;;;;;;;8.88;2.50;;;9.80;99.90;;;;;;4943752;28;20050;-74
2023/03/31 06:27:22;;;;;;;6.50;2.42;;;9.80;99.90;;;;;;4982935;28;20046;-74
2023/03/31 06:29:49;;;;;;;7.68;2.75;;;9.80;99.90;;;;;;4964311;28;20575;-74
2023/03/31 06:32:15;;;;;;;8.18;2.70;;;9.80;99.90;;;;;;4984403;28;20516;-74
2023/03/31 06:34:40;;;;;;;6.28;2.30;;;9.80;99.90;;;;;;4980830;28;20046;-74
2023/03/31 06:37:06;;;;;;;7.43;2.33;;;9.90;99.90;;;;;;4975703;28;20512;-74
2023/03/31 06:39:32;;;;;;;7.25;3.10;;;9.90;99.90;;;;;;4986024;28;20381;-73
2023/03/31 06:41:57;;;;;;;8.23;2.70;;;9.90;99.90;;;;;;4984323;28;20047;-74
2023/03/31 06:44:23;;;;;;;8.90;2.55;;;9.90;99.90;;;;;;4979529;28;20046;-74
2023/03/31 06:46:49;;;;;;;9.00;2.88;;;9.90;99.90;;;;;;4957713;28;20046;-73
2023/03/31 06:49:15;;;;;;;7.15;2.78;;;9.90;99.90;;;;;;4975095;28;20117;-74
2023/03/31 06:51:41;;;;;;;7.65;2.88;;;10.00;99.90;;;;;;4974706;28;20493;-74
2023/03/31 06:54:07;;;;;;;6.40;2.90;;;9.80;99.90;;;;;;4975309;28;20121;-73
2023/03/31 06:56:32;;;;;;;8.32;2.78;;;9.90;99.90;;;;;;4974865;28;20497;-73
2023/03/31 06:58:58;;;;;;;6.90;2.85;;;10.00;99.90;;;;;;4957458;28;20051;-73
2023/03/31 07:01:24;;;;;;;7.35;3.40;;;10.00;99.90;;;;;;4957368;28;20042;-74
2023/03/31 07:03:49;;;;;;;6.97;2.90;;;10.00;99.90;;;;;;4957574;28;20094;-74
2023/03/31 07:06:15;;;;;;;6.25;2.47;;;10.90;99.90;;;;;;4975559;28;20107;-73
2023/03/31 07:08:41;;;;;;;8.82;3.33;;;10.10;99.90;;;;;;4975210;28;20369;-74
2023/03/31 07:11:07;;;;;;;7.80;2.78;;;10.10;99.90;;;;;;4941723;28;20141;-74
2023/03/31 07:13:33;;;;;;;8.10;2.75;;;10.00;99.90;;;;;;4974589;28;20047;-74
2023/03/31 07:15:58;;;;;;;7.82;3.10;;;10.10;99.90;;;;;;4974848;28;20153;-74
2023/03/31 07:18:24;;;;;;;9.23;2.97;;;10.10;99.90;;;;;;4974575;28;20503;-74
2023/03/31 07:20:51;;;;;;;6.97;3.25;;;9.90;99.90;;;;;;4974150;28;20492;-74
2023/03/31 07:23:17;;;;;;;8.68;2.85;;;10.00;99.90;;;;;;4974566;28;20456;-74
2023/03/31 07:25:44;;;;;;;7.20;2.15;;;10.00;99.90;;;;;;4957602;28;20416;-75
2023/03/31 07:28:10;;;;;;;8.45;3.17;;;10.10;99.90;;;;;;4974560;28;20055;-75
2023/03/31 07:30:35;;;;;;;8.65;2.90;;;10.10;99.90;;;;;;4957356;28;20054;-74
2023/03/31 07:33:01;;;;;;;5.85;2.70;;;10.10;99.90;;;;;;4958180;28;20368;-73
2023/03/31 07:35:27;;;;;;;5.78;2.65;;;10.10;99.90;;;;;;4974489;28;20170;-74
2023/03/31 07:37:53;;;;;;;6.45;2.33;;;10.10;99.90;;;;;;4957234;28;20129;-74
2023/03/31 07:40:30;;;;;;;8.68;2.70;;;10.10;99.90;;;;;;4974269;28;20042;-79
2023/03/31 07:42:56;;;;;;;6.55;2.88;;;10.20;99.90;;;;;;4974053;28;20497;-74
2023/03/31 07:45:24;;;;;;;6.60;2.85;;;10.10;99.90;;;;;;4975108;28;20051;-74
2023/03/31 07:47:50;;;;;;;8.90;2.75;;;10.10;99.90;;;;;;4957027;28;20046;-74
2023/03/31 07:50:20;;;;;;;8.55;2.60;;;10.10;99.90;;;;;;4976938;28;20136;-74
2023/03/31 07:52:46;;;;;;;6.18;2.70;;;10.10;99.90;;;;;;4977402;28;20065;-73
2023/03/31 07:55:12;;;;;;;7.07;2.75;;;10.10;99.90;;;;;;4977705;28;20090;-73
2023/03/31 07:57:39;;;;;;;5.05;2.17;;;10.10;99.90;;;;;;4961422;28;20055;-73
2023/03/31 08:00:07;;;;;;;6.70;2.97;;;10.10;99.90;;;;;;4977781;28;20473;-73
2023/03/31 08:02:33;;;;;;;9.07;3.00;;;10.10;99.90;;;;;;4960809;28;20113;-73
2023/03/31 08:04:59;;;;;;;5.97;2.95;;;10.10;99.90;;;;;;4978444;28;20059;-74
2023/03/31 08:07:26;;;;;;;6.43;2.38;;;10.10;99.90;;;;;;4960591;28;20493;-74
2023/03/31 08:09:51;;;;;;;6.97;2.70;;;10.20;99.90;;;;;;4977395;28;20049;-73
2023/03/31 08:12:17;;;;;;;9.25;3.03;;;10.10;99.90;;;;;;4960387;28;20392;-73
2023/03/31 08:14:43;;;;;;;5.25;2.42;;;10.00;99.90;;;;;;4959878;28;20042;-73
2023/03/31 08:17:09;;;;;;;5.03;2.78;;;10.20;99.90;;;;;;4977320;28;20043;-74
2023/03/31 08:19:35;;;;;;;5.40;2.20;;;10.30;99.90;;;;;;4959825;28;20126;-73
2023/03/31 08:22:01;;;;;;;6.72;2.50;;;10.20;99.90;;;;;;4944423;28;20452;-73
2023/03/31 08:24:27;;;;;;;5.82;2.13;;;10.90;99.90;;;;;;4944189;28;20090;-79
2023/03/31 08:26:54;;;;;;;5.43;2.03;;;10.10;99.90;;;;;;4960013;28;20145;-74
2023/03/31 08:29:20;;;;;;;6.95;2.47;;;10.20;99.90;;;;;;4928215;28;20133;-73
2023/03/31 08:31:46;;;;;;;7.15;2.65;;;10.10;99.90;;;;;;4960752;28;20072;-74
2023/03/31 08:34:11;;;;;;;3.70;1.92;;;11.00;99.90;;;;;;4959911;28;20055;-74
2023/03/31 08:36:37;;;;;;;5.00;1.95;;;10.20;99.90;;;;;;4943879;28;20074;-73
2023/03/31 08:39:03;;;;;;;6.60;2.00;;;10.70;99.90;;;;;;4976761;28;20043;-73
2023/03/31 08:41:41;;;;;;;5.32;1.98;;;10.30;99.90;;;;;;4976826;28;20094;-74
2023/03/31 08:44:32;;;;;;;4.57;2.53;;;10.20;99.90;;;;;;4959792;28;20516;-74
2023/03/31 08:47:01;;;;;;;6.47;2.05;;;10.20;99.90;;;;;;4959404;28;20054;-73
2023/03/31 08:49:30;;;;;;;7.50;2.85;;;10.20;99.90;;;;;;4976717;28;20043;-73
2023/03/31 08:52:01;;;;;;;6.43;2.58;;;10.30;99.90;;;;;;4959275;28;20058;-73
2023/03/31 08:54:30;;;;;;;6.45;2.50;;;10.30;99.90;;;;;;4943606;28;20058;-73
2023/03/31 08:56:56;;;;;;;4.65;2.50;;;10.30;99.90;;;;;;4976557;28;20055;-74
2023/03/31 08:59:28;;;;;;;5.22;2.60;;;10.30;99.90;;;;;;4943992;28;20055;-73
2023/03/31 09:02:17;;;;;;;3.58;2.42;;;10.30;99.90;;;;;;4943859;28;20458;-73
2023/03/31 09:05:01;;;;;;;6.55;2.75;;;10.30;99.90;;;;;;4958890;28;20051;-73
2023/03/31 09:07:51;;;;;;;8.75;3.35;;;10.40;99.90;;;;;;4976955;28;20047;-73
2023/03/31 09:11:03;;;;;;;9.32;2.97;;;10.40;99.90;;;;;;4959235;28;20058;-73
2023/03/31 09:13:50;;;;;;;5.32;2.95;;;10.50;99.90;;;;;;4959908;28;20059;-73
2023/03/31 09:16:26;;;;;;;8.85;3.53;;;10.50;99.90;;;;;;4943182;28;20066;-73
2023/03/31 09:18:58;;;;;;;5.50;3.33;;;10.50;99.90;;;;;;4943308;28;20469;-74
2023/03/31 09:21:38;;;;;;;7.80;3.63;;;10.60;99.90;;;;;;4959808;28;20051;-73
2023/03/31 09:24:06;;;;;;;7.47;3.28;;;10.60;99.90;;;;;;4959365;28;20063;-73
2023/03/31 09:26:51;;;;;;;7.43;3.38;;;10.70;99.90;;;;;;4958900;28;20515;-73
2023/03/31 09:29:28;;;;;;;7.25;3.58;;;10.70;99.90;;;;;;4959671;28;20373;-73
2023/03/31 09:32:01;;;;;;;5.88;3.50;;;10.70;99.90;;;;;;4958866;28;20051;-73
2023/03/31 09:34:31;;;;;;;5.63;2.80;;;11.00;99.90;;;;;;4959215;28;20133;-73
2023/03/31 09:36:56;;;;;;;5.80;3.42;;;10.70;99.90;;;;;;4959534;28;20050;-73
2023/03/31 09:39:22;;;;;;;5.53;2.83;;;10.70;99.90;;;;;;4958781;28;20485;-73
2023/03/31 09:41:50;;;;;;;6.22;2.47;;;11.20;99.90;;;;;;4943525;28;20090;-73
2023/03/31 09:44:33;;;;;;;6.82;2.65;;;10.70;99.90;;;;;;4943417;28;20059;-73
2023/03/31 09:47:00;;;;;;;;;;;10.80;99.90;;;;;;4976320;28;20457;-73
2023/03/31 09:49:30;;;;;;;4.97;2.75;;;10.80;99.90;;;;;;4975623;28;20288;-73
2023/03/31 09:52:24;;;;;;;6.82;2.75;;;10.70;99.90;;;;;;4942075;28;20073;-73
2023/03/31 09:54:53;;;;;;;4.03;2.22;;;10.80;99.90;;;;;;4975492;28;20061;-73
2023/03/31 09:57:39;;;;;;;6.57;2.78;;;10.90;99.90;;;;;;4975372;28;20047;-73
2023/03/31 10:00:17;;;;;;;7.47;2.35;;;10.90;99.90;;;;;;4942423;28;20697;-73
2023/03/31 10:02:50;;;;;;;2.80;2.10;;;10.80;99.90;;;;;;4959159;28;20057;-73
2023/03/31 10:05:30;;;;;;;5.40;2.88;;;10.80;99.90;;;;;;4975449;28;20051;-73
2023/03/31 10:08:25;;;;;;;5.22;2.63;;;10.90;99.90;;;;;;4975175;28;20106;-77
2023/03/31 10:10:54;;;;;;;6.72;2.80;;;10.90;99.90;;;;;;4975253;28;20403;-73
2023/03/31 10:13:24;;;;;;;3.47;1.65;;;11.00;99.90;;;;;;4974416;28;20051;-72
2023/03/31 10:16:00;;;;;;;4.63;2.00;;;11.00;99.90;;;;;;4975140;28;20050;-73
2023/03/31 10:18:36;;;;;;;3.85;2.03;;;10.90;99.90;;;;;;4958241;28;20090;-73
2023/03/31 10:21:05;;;;;;;5.03;1.52;;;11.00;99.90;;;;;;4958399;28;20372;-73
2023/03/31 10:23:33;;;;;;;3.65;1.40;;;10.90;99.90;;;;;;4958629;28;20058;-73
2023/03/31 10:26:00;;;;;;;4.40;1.48;;;11.00;99.90;;;;;;4957327;28;20046;-73
2023/03/31 10:28:29;;;;;;;6.53;1.70;;;11.00;99.90;;;;;;4974849;28;20155;-74
2023/03/31 10:31:01;;;;;;;5.35;1.52;;;11.00;99.90;;;;;;4974923;28;20054;-74
2023/03/31 10:33:30;;;;;;;3.63;1.40;;;11.00;99.90;;;;;;4958580;28;20050;-73
2023/03/31 10:36:25;;;;;;;3.70;1.52;;;11.10;99.90;;;;;;4958328;28;20473;-74
2023/03/31 10:38:52;;;;;;;6.68;1.48;;;11.20;99.90;;;;;;4955629;28;20054;-73
2023/03/31 10:41:29;;;;;;;3.85;1.23;;;11.10;99.90;;;;;;4974732;28;20061;-73
2023/03/31 10:44:04;;;;;;;4.35;1.50;;;11.20;99.90;;;;;;4941494;28;20162;-73
2023/03/31 10:46:48;;;;;;;2.47;1.08;;;11.30;99.90;;;;;;4942016;28;20159;-74
2023/03/31 10:49:20;;;;;;;4.00;1.40;;;11.50;99.90;;;;;;4974612;28;20126;-73
2023/03/31 10:51:53;;;;;;;2.10;1.00;;;11.30;99.90;;;;;;4974666;28;20102;-74
2023/03/31 10:54:19;;;;;;;3.20;0.80;;;11.10;99.90;;;;;;4957715;28;20109;-73
2023/03/31 10:56:51;;;;;;;2.50;0.90;;;11.40;99.90;;;;;;4974658;28;20042;-74
2023/03/31 10:59:29;;;;;;;3.92;1.10;;;11.40;99.90;;;;;;4957335;28;20528;-73
2023/03/31 11:02:24;;;;;;;3.88;0.90;;;11.60;99.90;;;;;;4974612;28;20094;-73
2023/03/31 11:04:55;;;;;;;1.23;0.90;;;11.50;99.90;;;;;;4974636;28;20043;-73
2023/03/31 11:07:21;;;;;;;2.05;0.80;;;11.60;99.90;;;;;;4957325;28;20057;-73
2023/03/31 11:10:32;;;;;;;2.60;0.80;;;11.70;99.90;;;;;;4974823;28;20043;-75
2023/03/31 11:13:13;;;;;;;1.98;0.90;;;11.60;99.90;;;;;;4957301;28;20126;-73
2023/03/31 11:15:59;;;;;;;2.22;0.90;;;11.60;99.90;;;;;;4975110;28;20051;-74
2023/03/31 11:18:49;;;;;;;2.00;0.73;;;11.60;99.90;;;;;;4946979;28;20153;-73
2023/03/31 11:21:24;;;;;;;2.90;0.90;;;11.50;99.90;;;;;;4975054;28;20054;-73
2023/03/31 11:24:21;;;;;;;2.17;0.90;;;12.40;99.90;;;;;;4964931;28;20505;-72
2023/03/31 11:27:15;;;;;;;2.83;1.13;;;11.50;99.90;;;;;;4979375;28;20481;-73
2023/03/31 11:29:56;;;;;;;1.40;1.05;;;11.50;99.90;;;;;;4978137;28;20047;-74
2023/03/31 11:32:42;;;;;;;3.13;1.05;;;11.80;99.90;;;;;;4961508;28;20082;-73
2023/03/31 11:35:23;;;;;;;3.00;1.02;;;12.00;99.90;;;;;;4961576;28;20049;-74
2023/03/31 11:38:12;;;;;;;4.88;1.20;;;12.00;99.90;;;;;;4960897;28;20135;-73
2023/03/31 11:40:58;;;;;;;6.40;1.30;;;12.10;99.90;;;;;;4948435;28;20142;-74
2023/03/31 11:43:42;;;;;;;3.60;1.27;;;12.30;99.90;;;;;;4977884;28;20480;-74
2023/03/31 11:46:11;;;;;;;3.30;1.00;;;12.40;99.90;;;;;;4961521;28;20047;-73
2023/03/31 11:48:49;;;;;;;3.80;1.20;;;12.40;99.90;;;;;;4978202;28;20049;-74
2023/03/31 11:51:24;;;;;;;2.42;1.15;;;12.50;99.90;;;;;;4977819;28;20086;-73
2023/03/31 11:53:54;;;;;;;5.85;1.70;;;12.70;99.90;;;;;;4960612;28;20062;-74
2023/03/31 11:56:22;;;;;;;1.83;1.10;;;12.70;99.90;;;;;;4962597;28;20481;-74
2023/03/31 11:58:58;;;;;;;4.00;1.10;;;12.80;99.90;;;;;;4983019;28;20047;-73
2023/03/31 12:01:36;;;;;;;4.32;1.33;;;12.80;99.90;;;;;;4985665;28;20100;-74
2023/03/31 12:04:33;;;;;;;3.15;1.00;;;13.00;99.90;;;;;;4984849;28;20047;-74
2023/03/31 12:07:14;;;;;;;3.15;1.13;;;13.00;99.90;;;;;;4982472;28;20047;-74
2023/03/31 12:10:04;;;;;;;2.50;0.80;;;12.80;99.90;;;;;;4979756;28;20043;-73
2023/03/31 12:12:34;;;;;;;2.13;0.70;;;12.80;99.90;;;;;;4978271;28;20500;-73
2023/03/31 12:15:21;;;;;;;2.40;0.70;;;12.70;99.90;;;;;;4977808;28;20051;-74
2023/03/31 12:17:57;;;;;;;2.00;0.60;;;12.70;99.90;;;;;;4961474;28;20381;-74
2023/03/31 12:20:30;;;;;;;0.90;0.47;;;12.70;99.90;;;;;;4960297;28;20133;-74
2023/03/31 12:22:58;;;;;;;0.75;0.57;;;12.50;99.90;;;;;;4977409;28;20057;-74
2023/03/31 12:25:27;;;;;;;2.85;0.77;;;12.50;99.90;;;;;;4960379;28;20048;-74
2023/03/31 12:27:53;;;;;;;2.95;0.70;;;12.40;99.90;;;;;;4977429;28;20097;-74
2023/03/31 12:30:29;;;;;;;3.00;1.08;;;12.50;99.90;;;;;;4977258;28;20082;-74
2023/03/31 12:32:59;;;;;;;3.75;0.75;;;12.50;99.90;;;;;;4978536;28;20124;-74
2023/03/31 12:35:46;;;;;;;2.03;0.70;;;12.50;99.90;;;;;;4976828;28;20101;-74
2023/03/31 12:38:15;;;;;;;3.20;0.80;;;12.80;99.90;;;;;;4979032;28;20069;-74
2023/03/31 12:40:50;;;;;;;2.63;1.02;;;12.80;99.90;;;;;;4960330;28;20097;-74
2023/03/31 12:43:19;;;;;;;1.73;0.60;;;13.00;99.90;;;;;;4978009;28;20090;-74
2023/03/31 12:46:22;;;;;;;3.90;0.75;;;13.00;99.90;;;;;;4977140;28;20043;-72
2023/03/31 12:49:18;;;;;;;3.20;1.00;;;13.10;99.90;;;;;;4976740;28;20054;-74
2023/03/31 12:52:13;;;;;;;3.35;0.98;;;13.00;99.90;;;;;;4977207;28;20071;-73
2023/03/31 12:54:54;;;;;;;3.60;1.10;;;13.20;99.90;;;;;;4943466;28;20125;-74
2023/03/31 12:57:23;;;;;;;3.67;1.00;;;13.10;99.90;;;;;;4976852;28;20098;-74
2023/03/31 13:00:12;;;;;;;2.30;0.98;;;13.20;99.90;;;;;;4976351;28;20093;-74
2023/03/31 13:02:39;;;;;;;3.03;0.88;;;13.20;99.90;;;;;;4976334;28;20138;-74
2023/03/31 13:05:36;;;;;;;4.60;1.05;;;13.30;99.90;;;;;;4976377;28;20377;-74
2023/03/31 13:08:07;;;;;;;4.38;0.90;;;13.10;99.90;;;;;;4976330;28;20046;-75
2023/03/31 13:10:53;;;;;;;4.88;1.13;;;13.40;99.90;;;;;;4976300;28;20050;-74
2023/03/31 13:13:19;;;;;;;5.05;1.10;;;13.20;99.90;;;;;;4976057;28;20086;-75
2023/03/31 13:16:00;;;;;;;2.78;0.93;;;13.20;99.90;;;;;;4959123;28;20047;-74